Time;durP1;ratioP1;P1;durP2;ratioP2;P2;SDS_P1;SDS_P2;PMS_P1;PMS_P2;Temp;Humidity;BMP_temperature;BMP_pressure;BME280_temperature;BME280_humidity;BME280_pressure;Samples;Min_cycle;Max_cycle;Signal;HPM_P1;HPM_P2
2022/03/03 00:01:27;;;;;;;12.00;9.50;;;3.50;75.90;;;3.29;54.54;94789.63;5054294;28;20447;-57
2022/03/03 00:03:54;;;;;;;13.50;9.57;;;3.50;76.60;;;3.30;54.97;94783.47;5053072;28;20472;-55
2022/03/03 00:06:22;;;;;;;15.37;10.77;;;3.50;76.60;;;3.29;54.17;94787.03;5054132;28;20447;-58
2022/03/03 00:08:49;;;;;;;12.83;9.50;;;3.50;76.00;;;3.29;54.25;94787.84;5052714;28;20475;-57
2022/03/03 00:11:16;;;;;;;15.20;10.53;;;3.50;76.20;;;3.28;55.12;94787.94;5053464;28;20455;-57
2022/03/03 00:13:44;;;;;;;15.53;10.23;;;3.50;76.60;;;3.28;54.86;94791.38;5050611;28;20480;-58
2022/03/03 00:16:11;;;;;;;14.80;10.60;;;3.50;76.60;;;3.27;54.96;94776.72;5057013;28;20448;-57
2022/03/03 00:18:39;;;;;;;12.30;9.43;;;3.50;76.40;;;3.27;54.32;94779.31;5060519;28;20499;-57
2022/03/03 00:21:07;;;;;;;22.97;11.47;;;3.50;76.60;;;3.27;53.87;94783.66;5057955;28;20508;-56
2022/03/03 00:23:34;;;;;;;14.07;10.17;;;3.50;76.30;;;3.28;55.21;94780.16;5052847;28;20468;-57
2022/03/03 00:26:01;;;;;;;16.03;11.00;;;3.50;76.60;;;3.30;54.54;94778.28;5056619;28;20513;-56
2022/03/03 00:28:28;;;;;;;18.37;11.37;;;3.50;77.40;;;3.33;54.44;94780.69;5061275;28;20475;-57
2022/03/03 00:30:56;;;;;;;18.00;10.13;;;3.50;76.60;;;3.33;54.50;94776.34;5057509;28;20451;-58
2022/03/03 00:33:23;;;;;;;13.07;10.40;;;3.60;76.50;;;3.34;54.14;94769.38;5059151;28;20480;-58
2022/03/03 00:35:51;;;;;;;18.47;10.07;;;3.60;76.80;;;3.33;54.46;94778.09;5062526;28;20956;-57
2022/03/03 00:38:19;;;;;;;26.17;10.73;;;3.60;76.70;;;3.32;54.84;94772.06;5059376;28;20516;-58
2022/03/03 00:40:46;;;;;;;17.13;10.87;;;3.60;77.50;;;3.30;54.69;94773.06;5057812;28;20571;-55
2022/03/03 00:43:13;;;;;;;16.37;11.17;;;3.60;77.50;;;3.26;53.98;94772.44;5057668;28;20511;-58
2022/03/03 00:45:41;;;;;;;15.97;11.03;;;3.50;76.60;;;3.26;55.09;94776.81;5060799;28;20459;-56
2022/03/03 00:48:08;;;;;;;15.40;10.90;;;3.50;76.60;;;3.27;55.15;94778.47;5061304;28;20458;-55
2022/03/03 00:50:35;;;;;;;14.40;11.30;;;3.50;76.60;;;3.27;54.90;94778.47;5056688;28;20470;-57
2022/03/03 00:53:04;;;;;;;18.13;11.83;;;3.50;76.70;;;3.28;55.14;94772.34;5057716;28;20896;-56
2022/03/03 00:55:31;;;;;;;15.10;10.33;;;3.50;77.20;;;3.25;55.10;94772.56;5060125;28;20459;-54
2022/03/03 00:57:59;;;;;;;16.13;9.90;;;3.50;77.10;;;3.27;54.92;94778.47;5056497;28;20495;-54
2022/03/03 01:00:26;;;;;;;16.30;10.97;;;3.50;77.30;;;3.26;55.08;94775.06;5057716;28;20454;-56
2022/03/03 01:02:53;;;;;;;18.40;11.43;;;3.50;77.10;;;3.29;54.81;94774.03;5058696;28;20776;-57
2022/03/03 01:05:21;;;;;;;18.83;12.10;;;3.50;77.50;;;3.29;55.46;94771.44;5055693;28;20821;-56
2022/03/03 01:07:48;;;;;;;19.17;10.60;;;3.50;77.90;;;3.30;54.65;94775.69;5054866;28;20459;-57
2022/03/03 01:10:17;;;;;;;18.23;10.70;;;3.50;77.70;;;3.30;54.97;94767.88;5055290;28;20982;-54
2022/03/03 01:12:44;;;;;;;16.40;11.47;;;3.50;77.50;;;3.29;54.89;94767.06;5061660;28;20471;-57
2022/03/03 01:15:11;;;;;;;21.20;11.33;;;3.50;77.70;;;3.28;55.46;94760.19;5054991;28;20499;-56
2022/03/03 01:17:39;;;;;;;16.43;11.17;;;3.50;78.20;;;3.30;55.69;94757.47;5061914;28;20525;-58
2022/03/03 01:20:08;;;;;;;18.93;12.37;;;3.50;78.30;;;3.30;55.62;94767.88;5060179;28;20480;-55
2022/03/03 01:22:35;;;;;;;16.20;11.90;;;3.50;77.90;;;3.29;54.75;94756.66;5063063;28;20551;-57
2022/03/03 01:25:03;;;;;;;23.40;11.33;;;3.50;77.80;;;3.29;55.61;94751.47;5058511;28;20490;-56
2022/03/03 01:27:32;;;;;;;16.47;9.77;;;3.50;78.00;;;3.28;54.69;94754.16;5057179;28;20508;-57
2022/03/03 01:30:01;;;;;;;14.80;11.33;;;3.50;77.80;;;3.27;55.48;94749.88;5054206;28;20563;-57
2022/03/03 01:32:28;;;;;;;19.93;12.03;;;3.50;78.20;;;3.28;54.63;94748.97;5056482;28;20900;-56
2022/03/03 01:34:55;;;;;;;23.10;11.33;;;3.50;78.10;;;3.28;55.59;94748.97;5053129;28;21053;-56
2022/03/03 01:37:23;;;;;;;17.00;11.67;;;3.50;78.10;;;3.26;55.40;94740.44;5055790;28;20545;-57
2022/03/03 01:39:50;;;;;;;16.80;11.80;;;3.50;78.60;;;3.25;55.93;94741.38;5056247;28;20479;-54
2022/03/03 01:42:18;;;;;;;17.33;12.27;;;3.50;78.70;;;3.23;56.02;94736.25;5066309;28;20452;-54
2022/03/03 01:44:47;;;;;;;16.70;11.17;;;3.50;78.80;;;3.23;55.53;94738.88;5063758;28;20521;-54
2022/03/03 01:47:18;;;;;;;20.53;12.70;;;3.50;78.60;;;3.25;55.78;94741.38;5061184;28;20443;-57
2022/03/03 01:49:46;;;;;;;23.10;12.33;;;3.50;78.40;;;3.24;55.36;94737.94;5057666;28;20475;-56
2022/03/03 01:52:13;;;;;;;18.30;11.47;;;3.50;78.70;;;3.23;55.68;94734.50;5060213;28;20448;-56
2022/03/03 01:54:40;;;;;;;20.23;11.67;;;3.50;78.70;;;3.25;55.60;94730.97;5060182;28;20899;-56
2022/03/03 01:57:08;;;;;;;15.87;11.40;;;3.50;78.80;;;3.26;55.50;94730.03;5059679;28;20451;-58
2022/03/03 01:59:35;;;;;;;16.50;12.63;;;3.50;79.30;;;3.28;55.83;94728.16;5064931;28;20475;-54
2022/03/03 02:02:05;;;;;;;21.33;13.00;;;3.50;79.30;;;3.29;55.41;94724.66;5059953;28;20451;-57
2022/03/03 02:04:33;;;;;;;22.50;13.03;;;3.50;78.90;;;3.27;55.29;94723.88;5063549;28;20541;-55
2022/03/03 02:07:00;;;;;;;15.03;10.60;;;3.50;79.00;;;3.25;55.95;94721.41;5062820;28;20948;-57
2022/03/03 02:09:27;;;;;;;23.10;13.60;;;3.50;78.90;;;3.26;55.79;94715.28;5064361;28;20474;-57
2022/03/03 02:11:55;;;;;;;21.23;13.30;;;3.50;79.00;;;3.26;56.18;94723.06;5064898;28;20509;-57
2022/03/03 02:14:22;;;;;;;17.47;12.43;;;3.50;79.20;;;3.23;55.89;94718.91;5064759;28;20509;-56
2022/03/03 02:16:49;;;;;;;21.80;12.73;;;3.50;79.70;;;3.22;55.55;94722.44;5060886;28;20477;-54
2022/03/03 02:19:19;;;;;;;41.23;12.60;;;3.50;79.50;;;3.18;56.03;94723.56;5065064;28;21037;-54
2022/03/03 02:21:49;;;;;;;17.90;11.37;;;3.50;79.50;;;3.18;56.52;94727.94;5061648;28;20453;-57
2022/03/03 02:24:17;;;;;;;18.73;12.20;;;3.40;79.70;;;3.16;55.93;94721.97;5060133;28;20474;-58
2022/03/03 02:26:44;;;;;;;19.27;11.47;;;3.40;80.20;;;3.14;55.78;94722.09;5062773;28;20508;-58
2022/03/03 02:29:12;;;;;;;15.73;11.07;;;3.40;79.70;;;3.13;56.49;94716.97;5064617;28;20465;-57
2022/03/03 02:31:40;;;;;;;21.80;12.27;;;3.40;79.60;;;3.13;56.31;94728.22;5062874;28;20451;-57
2022/03/03 02:34:07;;;;;;;15.33;11.47;;;3.40;80.10;;;3.13;55.72;94723.03;5057087;28;20464;-57
2022/03/03 02:36:35;;;;;;;20.30;12.13;;;3.40;79.90;;;3.14;55.79;94724.69;5061357;28;20458;-56
2022/03/03 02:39:05;;;;;;;18.70;12.40;;;3.40;79.80;;;3.13;55.52;94719.59;5065055;28;20572;-54
2022/03/03 02:41:32;;;;;;;19.73;12.57;;;3.40;79.60;;;3.13;56.77;94720.44;5055581;28;20463;-56
2022/03/03 02:44:00;;;;;;;18.23;12.13;;;3.40;80.20;;;3.14;56.85;94727.28;5054250;28;20545;-54
2022/03/03 02:46:27;;;;;;;21.83;11.90;;;3.40;80.30;;;3.14;56.99;94729.88;5055423;28;20509;-55
2022/03/03 02:48:54;;;;;;;19.17;12.33;;;3.40;80.60;;;3.13;56.53;94725.63;5054867;28;20475;-57
2022/03/03 02:51:22;;;;;;;14.70;11.40;;;3.40;80.90;;;3.13;57.25;94730.84;5055336;28;20629;-58
2022/03/03 02:53:49;;;;;;;22.37;13.40;;;3.40;81.60;;;3.13;56.67;94725.63;5058931;28;20555;-57
2022/03/03 02:56:17;;;;;;;19.07;12.93;;;3.40;81.10;;;3.15;56.81;94733.34;5059660;28;20452;-57
2022/03/03 02:58:45;;;;;;;16.03;11.57;;;3.40;81.00;;;3.15;57.24;94731.56;5056824;28;20491;-57
2022/03/03 03:01:12;;;;;;;17.27;12.50;;;3.40;81.70;;;3.16;56.55;94734.97;5063058;28;20454;-56
2022/03/03 03:03:39;;;;;;;19.70;12.53;;;3.40;81.70;;;3.15;56.58;94723.75;5057974;28;21034;-57
2022/03/03 03:06:07;;;;;;;18.53;12.97;;;3.40;81.60;;;3.14;56.63;94727.28;5059431;28;20494;-57
2022/03/03 03:08:34;;;;;;;21.50;13.90;;;3.40;81.90;;;3.15;57.49;94723.75;5066436;28;20474;-55
2022/03/03 03:11:01;;;;;;;20.87;12.73;;;3.40;81.70;;;3.16;56.93;94729.78;5064366;28;20501;-57
2022/03/03 03:13:30;;;;;;;19.50;13.50;;;3.40;82.60;;;3.14;57.11;94716.88;5059777;28;20471;-55
2022/03/03 03:15:57;;;;;;;26.87;13.83;;;3.40;82.60;;;3.13;57.67;94725.63;5060427;28;20829;-57
2022/03/03 03:18:25;;;;;;;18.77;12.00;;;3.30;82.60;;;3.10;57.24;94724.97;5061094;28;20551;-57
2022/03/03 03:20:53;;;;;;;19.17;12.53;;;3.30;82.60;;;3.07;57.71;94720.81;5061360;28;20455;-55
2022/03/03 03:23:23;;;;;;;19.80;12.43;;;3.30;82.60;;;3.06;58.38;94713.94;5060000;28;20546;-56
2022/03/03 03:25:50;;;;;;;17.00;11.90;;;3.30;83.10;;;3.05;57.58;94717.47;5062297;28;20493;-56
2022/03/03 03:28:19;;;;;;;21.03;13.20;;;3.30;83.00;;;3.06;57.46;94732.13;5061302;28;20591;-55
2022/03/03 03:30:48;;;;;;;26.23;12.50;;;3.30;83.20;;;3.05;56.86;94722.66;5061725;28;20546;-55
2022/03/03 03:33:15;;;;;;;19.27;12.67;;;3.30;82.60;;;3.05;57.59;94720.94;5059806;28;21000;-56
2022/03/03 03:35:42;;;;;;;21.60;13.90;;;3.30;83.80;;;3.05;58.20;94722.66;5060211;28;20947;-57
2022/03/03 03:38:10;;;;;;;19.03;13.87;;;3.30;83.50;;;3.05;58.38;94727.88;5061241;28;20578;-57
2022/03/03 03:40:37;;;;;;;20.20;12.70;;;3.30;83.80;;;3.05;57.65;94727.88;5059833;28;20443;-57
2022/03/03 03:43:04;;;;;;;21.43;12.93;;;3.30;83.90;;;3.05;58.11;94720.06;5059889;28;20452;-56
2022/03/03 03:45:34;;;;;;;24.80;14.07;;;3.30;84.10;;;3.05;57.86;94712.28;5058247;28;20534;-55
2022/03/03 03:48:02;;;;;;;25.07;12.67;;;3.30;84.10;;;3.03;57.55;94714.16;5065252;28;20447;-54
2022/03/03 03:50:30;;;;;;;27.33;13.30;;;3.30;84.10;;;3.01;58.24;94721.22;5057443;28;20454;-57
2022/03/03 03:52:57;;;;;;;19.53;12.70;;;3.20;84.50;;;3.00;58.77;94719.53;5057297;28;20451;-56
2022/03/03 03:55:24;;;;;;;20.30;13.67;;;3.20;84.30;;;2.98;58.46;94718.81;5063627;28;20452;-56
2022/03/03 03:57:51;;;;;;;20.80;12.83;;;3.20;84.60;;;2.91;57.73;94715.75;5052113;28;20494;-58
2022/03/03 04:00:19;;;;;;;19.50;13.17;;;3.20;84.50;;;2.90;58.71;94718.44;5059406;28;20945;-57
2022/03/03 04:02:46;;;;;;;19.97;13.27;;;3.20;85.60;;;2.87;59.52;94709.09;5055650;28;20456;-58
2022/03/03 04:05:15;;;;;;;19.07;13.13;;;3.10;85.40;;;2.84;58.71;94715.31;5066282;28;20479;-56
2022/03/03 04:07:42;;;;;;;20.20;12.73;;;3.10;85.30;;;2.82;59.22;94704.19;5057384;28;20451;-56
2022/03/03 04:10:11;;;;;;;14.80;11.80;;;3.10;86.80;;;2.81;59.06;94707.72;5051760;28;20468;-56
2022/03/03 04:12:38;;;;;;;18.43;12.77;;;3.10;85.40;;;2.82;58.41;94700.75;5055491;28;20539;-56
2022/03/03 04:15:07;;;;;;;18.57;12.40;;;3.10;85.40;;;2.81;58.77;94702.53;5053814;28;20483;-56
2022/03/03 04:17:34;;;;;;;24.80;13.70;;;3.10;85.80;;;2.79;58.61;94706.13;5058586;28;20821;-57
2022/03/03 04:20:01;;;;;;;20.87;13.17;;;3.00;85.40;;;2.78;59.16;94715.69;5059894;28;20506;-58
2022/03/03 04:22:30;;;;;;;22.50;13.67;;;3.00;86.10;;;2.76;58.71;94714.97;5057732;28;20459;-57
2022/03/03 04:24:57;;;;;;;22.93;13.00;;;3.00;85.70;;;2.73;59.87;94717.78;5059889;28;20471;-57
2022/03/03 04:27:25;;;;;;;20.13;13.77;;;3.00;86.40;;;2.70;58.92;94712.75;5062342;28;20551;-57
2022/03/03 04:29:52;;;;;;;18.97;12.60;;;3.00;86.30;;;2.67;60.05;94708.59;5058395;28;20479;-56
2022/03/03 04:32:19;;;;;;;23.83;12.33;;;2.90;86.20;;;2.68;58.73;94712.00;5059486;28;20447;-55
2022/03/03 04:34:47;;;;;;;17.63;11.07;;;2.90;86.10;;;2.64;58.80;94703.59;5057987;28;20514;-57
2022/03/03 04:37:14;;;;;;;17.37;12.00;;;2.90;86.20;;;2.60;59.38;94696.09;5061594;28;20832;-56
2022/03/03 04:39:42;;;;;;;22.23;12.40;;;2.90;85.80;;;2.54;59.52;94701.66;5058961;28;20510;-57
2022/03/03 04:42:10;;;;;;;17.07;12.10;;;2.80;86.10;;;2.51;60.11;94706.13;5059543;28;20645;-58
2022/03/03 04:44:37;;;;;;;17.57;12.30;;;2.80;86.90;;;2.51;59.75;94698.34;5060030;28;20468;-57
2022/03/03 04:47:06;;;;;;;24.50;12.30;;;2.80;86.70;;;2.50;59.29;94703.63;5063054;28;20454;-57
2022/03/03 04:49:33;;;;;;;23.93;13.60;;;2.80;86.70;;;2.47;59.92;94702.03;5061127;28;20547;-60
2022/03/03 04:52:00;;;;;;;18.00;12.10;;;2.80;86.80;;;2.46;59.50;94697.78;5060853;28;20455;-56
2022/03/03 04:54:28;;;;;;;19.23;13.00;;;2.70;86.60;;;2.47;59.37;94702.03;5060527;28;20475;-56
2022/03/03 04:56:56;;;;;;;19.03;12.77;;;2.70;86.80;;;2.50;59.94;94706.22;5059563;28;20451;-57
2022/03/03 04:59:24;;;;;;;16.40;12.17;;;2.70;87.30;;;2.54;60.02;94705.09;5059033;28;20499;-56
2022/03/03 05:01:52;;;;;;;24.57;12.43;;;2.80;87.40;;;2.55;60.15;94700.75;5060649;28;20542;-54
2022/03/03 05:04:19;;;;;;;19.20;13.40;;;2.80;87.10;;;2.53;60.31;94695.63;5058620;28;20549;-56
2022/03/03 05:06:46;;;;;;;16.70;11.43;;;2.80;87.40;;;2.53;60.36;94705.19;5057831;28;20457;-55
2022/03/03 05:09:15;;;;;;;20.30;13.17;;;2.80;87.30;;;2.55;60.28;94703.34;5058417;28;20475;-55
2022/03/03 05:11:42;;;;;;;20.37;11.60;;;2.80;88.10;;;2.57;59.26;94701.47;5063034;28;20478;-57
2022/03/03 05:14:11;;;;;;;20.33;12.43;;;2.80;87.30;;;2.58;59.46;94705.75;5060579;28;20466;-55
2022/03/03 05:16:38;;;;;;;17.17;12.30;;;2.80;87.20;;;2.59;59.03;94702.22;5061246;28;20877;-56
2022/03/03 05:19:06;;;;;;;17.23;11.43;;;2.80;87.30;;;2.63;58.73;94706.28;5057578;28;20506;-57
2022/03/03 05:21:33;;;;;;;20.43;12.60;;;2.90;87.10;;;2.63;59.78;94711.47;5052357;28;20521;-58
2022/03/03 05:24:00;;;;;;;18.40;11.50;;;2.90;87.20;;;2.64;59.27;94706.19;5050509;28;20992;-57
2022/03/03 05:26:28;;;;;;;22.53;11.10;;;2.90;86.80;;;2.65;59.29;94707.00;5050723;28;20466;-54
2022/03/03 05:28:55;;;;;;;18.23;11.03;;;2.90;86.70;;;2.66;58.95;94706.91;5051682;28;20472;-58
2022/03/03 05:31:24;;;;;;;22.33;14.70;;;2.90;86.50;;;2.70;58.57;94712.75;5056915;28;20508;-55
2022/03/03 05:33:51;;;;;;;16.90;11.90;;;2.90;86.40;;;2.70;58.40;94702.38;5049192;28;20479;-56
2022/03/03 05:36:18;;;;;;;20.97;12.33;;;2.90;86.30;;;2.72;58.97;94704.88;5057513;28;20452;-57
2022/03/03 05:38:46;;;;;;;18.13;11.80;;;3.00;86.10;;;2.73;59.70;94712.56;5053720;28;20821;-57
2022/03/03 05:41:13;;;;;;;17.00;12.23;;;2.90;86.50;;;2.74;58.13;94714.22;5054203;28;20443;-57
2022/03/03 05:43:40;;;;;;;27.87;12.37;;;3.00;86.30;;;2.75;59.37;94715.91;5055769;28;20472;-57
2022/03/03 05:46:08;;;;;;;18.27;11.97;;;3.00;86.40;;;2.77;59.51;94719.22;5056008;28;20498;-57
2022/03/03 05:48:37;;;;;;;19.73;11.83;;;3.00;86.20;;;2.79;58.61;94712.19;5055698;28;20477;-56
2022/03/03 05:51:04;;;;;;;18.13;12.10;;;3.00;85.90;;;2.82;58.74;94714.59;5062043;28;20833;-57
2022/03/03 05:53:31;;;;;;;19.47;13.10;;;3.10;86.20;;;2.83;58.92;94716.25;5058672;28;20802;-57
2022/03/03 05:56:00;;;;;;;17.33;11.70;;;3.10;86.00;;;2.84;59.01;94715.31;5054581;28;20457;-58
2022/03/03 05:58:34;;;;;;;19.73;12.30;;;3.10;86.20;;;2.86;58.62;94713.44;5057723;28;21016;-59
2022/03/03 06:01:01;;;;;;;18.57;11.93;;;3.10;86.00;;;2.90;59.16;94715.84;5057741;28;20516;-57
2022/03/03 06:03:30;;;;;;;18.40;12.40;;;3.10;85.40;;;2.91;57.73;94712.34;5058042;28;20471;-56
2022/03/03 06:06:05;;;;;;;19.50;12.17;;;3.10;85.40;;;2.92;58.65;94716.59;5060171;28;20467;-57
2022/03/03 06:08:38;;;;;;;25.53;13.50;;;3.20;84.90;;;2.94;58.92;94719.94;5057549;28;20554;-58
2022/03/03 06:11:05;;;;;;;18.50;11.90;;;3.20;85.40;;;3.01;58.36;94721.22;5057286;28;20436;-56
2022/03/03 06:13:36;;;;;;;19.67;12.57;;;3.20;85.30;;;3.09;57.42;94713.75;5057254;28;20558;-58
2022/03/03 06:16:05;;;;;;;19.30;11.93;;;3.30;84.80;;;3.15;58.04;94718.56;5058977;28;20439;-55
2022/03/03 06:18:33;;;;;;;17.30;10.00;;;3.30;84.30;;;3.19;57.75;94712.25;5056908;28;20532;-58
2022/03/03 06:21:02;;;;;;;23.27;12.70;;;3.40;83.70;;;3.27;57.56;94713.50;5057982;28;20539;-57
2022/03/03 06:23:30;;;;;;;19.13;12.10;;;3.50;83.40;;;3.35;56.75;94711.25;5057456;28;20855;-56
2022/03/03 06:26:02;;;;;;;16.97;12.00;;;3.60;83.70;;;3.42;56.68;94715.09;5058336;28;20538;-58
2022/03/03 06:28:30;;;;;;;23.80;11.53;;;3.60;82.80;;;3.50;56.79;94712.00;5060148;28;21018;-57
2022/03/03 06:30:57;;;;;;;22.30;12.93;;;3.70;82.50;;;3.61;56.96;94713.88;5060188;28;20550;-57
2022/03/03 06:33:25;;;;;;;20.03;12.00;;;3.80;82.20;;;3.69;56.40;94711.63;5053467;28;20487;-58
2022/03/03 06:35:52;;;;;;;24.97;12.63;;;3.90;81.40;;;3.78;55.57;94721.44;5063364;28;20495;-56
2022/03/03 06:38:21;;;;;;;23.60;12.00;;;3.90;80.80;;;3.84;55.72;94708.00;5060795;28;21310;-57
2022/03/03 06:40:48;;;;;;;21.93;11.30;;;4.00;80.50;;;3.92;55.43;94715.31;5055081;28;20483;-55
2022/03/03 06:43:15;;;;;;;24.33;12.53;;;4.10;80.00;;;3.92;54.79;94716.13;5058534;28;20471;-58
2022/03/03 06:45:43;;;;;;;19.43;11.17;;;4.10;79.30;;;3.90;54.49;94710.19;5058297;28;20459;-57
2022/03/03 06:48:10;;;;;;;31.30;12.20;;;4.10;79.00;;;3.89;54.97;94718.94;5058371;28;20534;-56
2022/03/03 06:50:38;;;;;;;21.00;12.07;;;4.10;78.70;;;3.90;54.83;94722.34;5059671;28;20463;-56
2022/03/03 06:53:07;;;;;;;18.63;11.47;;;4.10;78.70;;;3.93;54.13;94717.81;5063520;28;20718;-56
2022/03/03 06:55:36;;;;;;;18.70;11.63;;;4.10;78.10;;;3.98;55.08;94727.88;5058617;28;20451;-56
2022/03/03 06:58:03;;;;;;;33.90;11.43;;;4.10;78.10;;;4.03;53.94;94718.00;5065649;28;20462;-56
2022/03/03 07:00:33;;;;;;;20.03;12.43;;;4.20;78.20;;;4.08;54.57;94728.09;5054971;28;21000;-57
2022/03/03 07:03:01;;;;;;;18.17;11.80;;;4.30;77.80;;;4.12;54.24;94726.94;5057909;28;20585;-57
2022/03/03 07:05:30;;;;;;;21.23;11.10;;;4.30;77.50;;;4.14;53.35;94722.47;5058111;28;20568;-56
2022/03/03 07:07:57;;;;;;;20.43;11.33;;;4.30;77.10;;;4.12;54.08;94725.19;5061524;28;20450;-58
2022/03/03 07:10:25;;;;;;;19.90;11.63;;;4.40;77.00;;;4.17;53.72;94724.88;5059855;28;20443;-58
2022/03/03 07:12:55;;;;;;;20.23;11.90;;;4.40;77.10;;;4.23;53.94;94729.66;5063629;28;20538;-57
2022/03/03 07:15:22;;;;;;;18.40;11.63;;;4.40;76.90;;;4.38;53.33;94726.94;5061971;28;20824;-57
2022/03/03 07:17:53;;;;;;;22.63;11.13;;;4.50;76.60;;;4.56;53.44;94730.03;5059513;28;20460;-58
2022/03/03 07:20:28;;;;;;;21.87;11.40;;;4.70;76.40;;;4.79;52.64;94729.25;5059584;28;20493;-59
2022/03/03 07:23:03;;;;;;;18.83;11.80;;;4.90;75.50;;;5.03;52.64;94731.06;5060491;28;20455;-56
2022/03/03 07:25:39;;;;;;;20.67;11.63;;;5.10;75.20;;;5.32;51.95;94728.13;5058984;28;20912;-56
2022/03/03 07:28:10;;;;;;;26.67;12.17;;;5.40;74.10;;;5.57;51.07;94724.56;5059659;28;20448;-58
2022/03/03 07:30:43;;;;;;;17.60;11.40;;;5.60;72.50;;;5.96;51.21;94725.13;5056973;28;20547;-59
2022/03/03 07:33:13;;;;;;;21.63;11.20;;;6.00;72.80;;;6.39;50.78;94727.13;5057804;28;20479;-58
2022/03/03 07:35:43;;;;;;;15.20;10.93;;;6.40;72.10;;;6.96;50.26;94724.50;5058655;28;20547;-56
2022/03/03 07:38:15;;;;;;;16.00;10.90;;;6.90;71.80;;;7.53;49.44;94728.63;5058165;28;20551;-57
2022/03/03 07:40:43;;;;;;;19.80;13.27;;;7.40;69.40;;;7.74;48.13;94724.38;5057457;28;20483;-58
2022/03/03 07:43:14;;;;;;;19.30;11.63;;;7.70;66.40;;;7.67;46.40;94727.50;5057817;28;20528;-57
2022/03/03 07:45:41;;;;;;;16.23;11.73;;;7.80;62.10;;;7.53;47.33;94728.63;5061785;28;20481;-59
2022/03/03 07:48:09;;;;;;;21.37;12.53;;;7.70;62.90;;;7.33;46.92;94719.78;5059300;28;20979;-56
2022/03/03 07:50:39;;;;;;;22.50;12.13;;;7.60;62.90;;;7.20;47.66;94726.13;5057809;28;20464;-57
2022/03/03 07:53:10;;;;;;;20.40;12.33;;;7.40;63.10;;;7.08;47.16;94728.75;5053511;28;20836;-57
2022/03/03 07:55:42;;;;;;;16.80;11.17;;;7.30;63.80;;;6.90;47.44;94731.03;5056800;28;20443;-57
2022/03/03 07:58:16;;;;;;;15.30;11.07;;;7.10;63.30;;;6.69;47.10;94728.31;5066481;28;20493;-57
2022/03/03 08:00:47;;;;;;;21.17;12.10;;;6.90;62.70;;;6.50;49.27;94728.91;5050095;28;20674;-56
2022/03/03 08:03:17;;;;;;;26.07;12.00;;;6.70;65.30;;;6.38;47.52;94719.41;5052227;28;20593;-57
2022/03/03 08:05:45;;;;;;;17.60;11.67;;;6.60;64.60;;;6.29;48.41;94728.81;5061100;28;20534;-58
2022/03/03 08:08:15;;;;;;;25.33;12.10;;;6.50;64.80;;;6.24;48.54;94730.91;5058249;28;20927;-58
2022/03/03 08:10:43;;;;;;;16.23;12.10;;;6.40;64.90;;;6.20;48.46;94734.72;5055723;28;20463;-57
2022/03/03 08:13:15;;;;;;;19.83;11.50;;;6.40;65.00;;;6.14;48.58;94730.78;5055934;28;20498;-58
2022/03/03 08:15:43;;;;;;;16.77;12.57;;;6.30;64.80;;;6.05;48.19;94727.09;5060048;28;20466;-57
2022/03/03 08:18:11;;;;;;;16.90;11.70;;;6.20;64.40;;;6.00;48.45;94721.41;5059108;28;20458;-59
2022/03/03 08:20:40;;;;;;;14.80;11.73;;;6.20;65.20;;;5.99;48.17;94727.56;5059439;28;21030;-57
2022/03/03 08:23:08;;;;;;;16.93;11.90;;;6.10;64.90;;;5.93;48.45;94725.38;5055395;28;20569;-58
2022/03/03 08:25:36;;;;;;;16.03;11.00;;;6.10;64.80;;;5.90;48.46;94725.59;5063454;28;20471;-58
2022/03/03 08:28:04;;;;;;;22.27;11.97;;;6.10;65.10;;;5.92;48.31;94726.34;5058115;28;20459;-58
2022/03/03 08:30:34;;;;;;;27.10;11.90;;;6.10;65.20;;;5.95;48.66;94728.72;5059274;28;20474;-57
2022/03/03 08:33:06;;;;;;;29.00;11.63;;;6.10;65.20;;;6.06;48.25;94720.09;5054460;28;20450;-58
2022/03/03 08:35:39;;;;;;;18.73;11.90;;;6.10;65.00;;;6.18;48.53;94727.00;5060181;28;20462;-57
2022/03/03 08:38:07;;;;;;;20.27;12.03;;;6.30;65.20;;;6.25;48.35;94724.75;5058736;28;20446;-57
2022/03/03 08:40:35;;;;;;;21.50;10.87;;;6.30;65.10;;;6.27;47.99;94728.94;5055228;28;20487;-56
2022/03/03 08:43:05;;;;;;;21.67;11.80;;;6.40;64.50;;;6.28;48.29;94727.13;5057457;28;20456;-58
2022/03/03 08:45:34;;;;;;;19.93;11.13;;;6.40;64.70;;;6.33;47.65;94732.84;5051899;28;20455;-59
2022/03/03 08:48:03;;;;;;;28.77;12.93;;;6.40;63.90;;;6.37;47.72;94726.44;5053682;28;20575;-56
2022/03/03 08:50:32;;;;;;;20.20;12.07;;;6.50;64.10;;;6.35;47.60;94719.66;5053944;28;20529;-58
2022/03/03 08:52:59;;;;;;;36.53;12.20;;;6.50;64.30;;;6.35;48.01;94719.66;5052813;28;20498;-57
2022/03/03 08:55:27;;;;;;;24.37;11.90;;;6.50;63.90;;;6.31;48.11;94721.69;5053559;28;20500;-58
2022/03/03 08:57:54;;;;;;;19.00;12.43;;;6.50;64.00;;;6.32;48.13;94723.34;5057937;28;20471;-57
2022/03/03 09:00:22;;;;;;;16.43;11.43;;;6.50;63.90;;;6.33;48.10;94714.53;5050140;28;21038;-57
2022/03/03 09:02:51;;;;;;;15.57;11.03;;;6.50;64.00;;;6.41;47.60;94720.03;5057093;28;20467;-57
2022/03/03 09:05:18;;;;;;;15.57;11.20;;;6.50;64.10;;;6.48;48.13;94719.56;5054199;28;21004;-58
2022/03/03 09:07:46;;;;;;;16.30;10.33;;;6.60;64.20;;;6.54;47.47;94719.09;5060238;28;20545;-59
2022/03/03 09:10:14;;;;;;;19.83;11.07;;;6.60;63.10;;;6.58;47.39;94726.56;5054692;28;20471;-57
2022/03/03 09:12:41;;;;;;;16.40;11.07;;;6.70;62.80;;;6.60;47.21;94729.03;5052672;28;20471;-56
2022/03/03 09:15:10;;;;;;;18.80;12.57;;;6.70;62.50;;;6.55;47.00;94718.13;5056025;28;20476;-57
2022/03/03 09:17:37;;;;;;;15.80;11.20;;;6.70;61.70;;;6.53;47.44;94718.22;5058989;28;20865;-58
2022/03/03 09:20:09;;;;;;;18.03;10.60;;;6.60;62.50;;;6.53;47.50;94717.41;5052866;28;20498;-56
2022/03/03 09:22:36;;;;;;;21.70;12.37;;;6.70;62.80;;;6.49;48.06;94723.81;5047761;28;20459;-57
2022/03/03 09:25:04;;;;;;;27.13;12.50;;;6.60;64.80;;;6.49;49.00;94716.81;5056708;28;20460;-57
2022/03/03 09:27:31;;;;;;;20.63;13.30;;;6.60;65.60;;;6.57;51.54;94721.47;5058063;28;20960;-58
2022/03/03 09:29:59;;;;;;;18.33;11.43;;;6.70;72.00;;;6.62;49.68;94717.53;5057726;28;20775;-55
2022/03/03 09:32:27;;;;;;;17.67;12.00;;;6.70;68.00;;;6.63;48.53;94723.56;5058884;28;21034;-56
2022/03/03 09:34:54;;;;;;;26.90;11.20;;;6.80;66.40;;;6.65;49.70;94719.06;5054224;28;20850;-56
2022/03/03 09:37:23;;;;;;;21.10;11.20;;;6.80;67.30;;;6.67;49.24;94724.19;5051669;28;20458;-58
2022/03/03 09:39:50;;;;;;;30.40;11.83;;;6.80;67.20;;;6.66;49.00;94718.09;5048035;28;20516;-57
2022/03/03 09:42:18;;;;;;;19.53;12.30;;;6.80;66.10;;;6.71;49.48;94705.53;5050516;28;20983;-55
2022/03/03 09:44:45;;;;;;;20.53;11.80;;;6.80;67.20;;;6.91;49.28;94721.41;5053755;28;20470;-56
2022/03/03 09:47:12;;;;;;;22.10;12.53;;;7.00;67.00;;;7.32;49.34;94709.44;5052325;28;20966;-55
2022/03/03 09:49:40;;;;;;;16.67;11.20;;;7.30;67.70;;;7.94;48.44;94720.94;5058554;28;20590;-57
2022/03/03 09:52:13;;;;;;;18.40;11.77;;;7.80;67.80;;;8.54;47.04;94702.84;5060836;28;20925;-57
2022/03/03 09:54:42;;;;;;;29.10;10.87;;;8.40;65.20;;;9.09;46.30;94702.47;5061420;28;20554;-56
2022/03/03 09:57:10;;;;;;;18.40;10.90;;;8.80;63.80;;;9.46;45.35;94691.31;5057580;28;20444;-57
2022/03/03 09:59:37;;;;;;;18.30;12.60;;;9.30;62.00;;;9.67;44.36;94701.69;5060971;28;20479;-54
2022/03/03 10:02:05;;;;;;;17.03;11.13;;;9.50;59.20;;;9.71;44.44;94701.41;5066819;28;20693;-56
2022/03/03 10:04:32;;;;;;;19.03;10.90;;;9.70;58.80;;;9.64;44.08;94690.63;5063327;28;20474;-56
2022/03/03 10:07:05;;;;;;;17.50;10.93;;;9.70;58.20;;;9.49;43.82;94695.47;5061404;28;20501;-56
2022/03/03 10:09:32;;;;;;;18.27;12.03;;;9.60;57.50;;;9.29;44.27;94686.72;5062613;28;20546;-57
2022/03/03 10:12:02;;;;;;;20.13;11.83;;;9.40;58.10;;;9.13;45.11;94690.72;5065818;28;20491;-56
2022/03/03 10:14:31;;;;;;;20.70;10.97;;;9.30;58.60;;;8.99;45.05;94696.34;5057645;28;20455;-56
2022/03/03 10:16:58;;;;;;;16.63;11.90;;;9.10;58.20;;;8.85;45.21;94694.94;5061560;28;20509;-56
2022/03/03 10:19:26;;;;;;;13.93;10.00;;;9.00;58.70;;;8.65;44.74;94693.22;5060012;28;20486;-55
2022/03/03 10:21:54;;;;;;;13.20;9.97;;;8.80;58.10;;;8.48;44.91;94690.25;5058204;28;20491;-57
2022/03/03 10:24:24;;;;;;;17.40;9.57;;;8.70;58.70;;;8.34;45.85;94686.16;5058636;28;20463;-57